Terminal Aerodrome Forecast
Issued by NWS

Home | Current Version | Previous Version | Text Only | Print | Product List | Glossary On
Versions: 1 2 3 4 5 6 7 8 9 10 11 12 13 14 15
000
FTUS46 KSEW 230535
TAFOLM
TAF
KOLM 230535Z 2306/2406 28003KT P6SM VCSH OVC029
     FM230900 19008KT P6SM SCT020 BKN070
      TEMPO 2310/2314 BKN020 OVC040
     FM231600 19004KT P6SM SCT020 BKN060
     FM232200 18012KT P6SM VCSH BKN060 OVC100
     FM240300 VRB04KT P6SM -RA OVC050=

USA.gov is the U.S. government's official web portal to all federal, state and local government web resources and services.